sensor_id;sensor_type;location;lat;lon;timestamp;P1;durP1;ratioP1;P2;durP2;ratioP2
75941;SDS011;64622;46.220;19.878;2023-05-10T00:00:10;14.67;;;7.40;;
75941;SDS011;64622;46.220;19.878;2023-05-10T00:02:39;17.08;;;7.95;;
75941;SDS011;64622;46.220;19.878;2023-05-10T00:05:06;15.63;;;7.95;;
75941;SDS011;64622;46.220;19.878;2023-05-10T00:07:34;13.73;;;7.03;;
75941;SDS011;64622;46.220;19.878;2023-05-10T00:10:00;14.07;;;6.87;;
75941;SDS011;64622;46.220;19.878;2023-05-10T00:12:27;14.83;;;8.13;;
75941;SDS011;64622;46.220;19.878;2023-05-10T00:14:54;16.20;;;7.32;;
75941;SDS011;64622;46.220;19.878;2023-05-10T00:17:20;14.00;;;7.78;;
75941;SDS011;64622;46.220;19.878;2023-05-10T00:19:47;15.18;;;7.68;;
75941;SDS011;64622;46.220;19.878;2023-05-10T00:22:14;14.95;;;7.72;;
75941;SDS011;64622;46.220;19.878;2023-05-10T00:24:40;15.57;;;7.10;;
75941;SDS011;64622;46.220;19.878;2023-05-10T00:27:07;15.55;;;8.05;;
75941;SDS011;64622;46.220;19.878;2023-05-10T00:29:34;15.82;;;8.55;;
75941;SDS011;64622;46.220;19.878;2023-05-10T00:32:00;15.30;;;7.72;;
75941;SDS011;64622;46.220;19.878;2023-05-10T00:34:27;14.87;;;7.72;;
75941;SDS011;64622;46.220;19.878;2023-05-10T00:36:54;15.50;;;8.10;;
75941;SDS011;64622;46.220;19.878;2023-05-10T00:39:21;14.00;;;8.05;;
75941;SDS011;64622;46.220;19.878;2023-05-10T00:41:47;16.20;;;8.25;;
75941;SDS011;64622;46.220;19.878;2023-05-10T00:44:15;13.48;;;6.97;;
75941;SDS011;64622;46.220;19.878;2023-05-10T00:46:41;14.05;;;8.07;;
75941;SDS011;64622;46.220;19.878;2023-05-10T00:49:08;17.43;;;7.37;;
75941;SDS011;64622;46.220;19.878;2023-05-10T00:51:35;13.52;;;7.32;;
75941;SDS011;64622;46.220;19.878;2023-05-10T00:54:02;14.00;;;6.50;;
75941;SDS011;64622;46.220;19.878;2023-05-10T00:56:29;15.27;;;6.97;;
75941;SDS011;64622;46.220;19.878;2023-05-10T00:58:56;14.25;;;7.85;;
75941;SDS011;64622;46.220;19.878;2023-05-10T01:01:23;14.27;;;8.13;;
75941;SDS011;64622;46.220;19.878;2023-05-10T01:03:51;14.98;;;8.05;;
75941;SDS011;64622;46.220;19.878;2023-05-10T01:06:18;14.50;;;7.90;;
75941;SDS011;64622;46.220;19.878;2023-05-10T01:08:45;13.23;;;7.05;;
75941;SDS011;64622;46.220;19.878;2023-05-10T01:11:12;15.38;;;7.97;;
75941;SDS011;64622;46.220;19.878;2023-05-10T01:13:39;16.37;;;8.10;;
75941;SDS011;64622;46.220;19.878;2023-05-10T01:16:08;16.95;;;9.13;;
75941;SDS011;64622;46.220;19.878;2023-05-10T01:18:41;15.30;;;8.98;;
75941;SDS011;64622;46.220;19.878;2023-05-10T01:26:47;14.33;;;8.10;;
75941;SDS011;64622;46.220;19.878;2023-05-10T01:34:35;14.57;;;8.27;;
75941;SDS011;64622;46.220;19.878;2023-05-10T01:37:31;14.30;;;7.45;;
75941;SDS011;64622;46.220;19.878;2023-05-10T01:42:40;14.65;;;8.35;;
75941;SDS011;64622;46.220;19.878;2023-05-10T01:45:24;14.98;;;7.85;;
75941;SDS011;64622;46.220;19.878;2023-05-10T01:47:58;14.35;;;6.82;;
75941;SDS011;64622;46.220;19.878;2023-05-10T01:50:32;15.50;;;8.57;;
75941;SDS011;64622;46.220;19.878;2023-05-10T01:53:02;15.37;;;8.47;;
75941;SDS011;64622;46.220;19.878;2023-05-10T01:55:39;14.20;;;8.45;;
75941;SDS011;64622;46.220;19.878;2023-05-10T01:58:13;18.20;;;8.93;;
75941;SDS011;64622;46.220;19.878;2023-05-10T02:00:45;16.25;;;8.82;;
75941;SDS011;64622;46.220;19.878;2023-05-10T02:03:13;15.70;;;8.13;;
75941;SDS011;64622;46.220;19.878;2023-05-10T02:05:42;18.50;;;9.23;;
75941;SDS011;64622;46.220;19.878;2023-05-10T02:08:11;15.93;;;9.05;;
75941;SDS011;64622;46.220;19.878;2023-05-10T02:10:43;17.60;;;9.27;;
75941;SDS011;64622;46.220;19.878;2023-05-10T02:13:11;14.93;;;8.75;;
75941;SDS011;64622;46.220;19.878;2023-05-10T02:15:40;20.05;;;8.65;;
75941;SDS011;64622;46.220;19.878;2023-05-10T02:18:08;16.77;;;8.73;;
75941;SDS011;64622;46.220;19.878;2023-05-10T02:20:36;15.52;;;8.52;;
75941;SDS011;64622;46.220;19.878;2023-05-10T02:23:03;16.75;;;9.13;;
75941;SDS011;64622;46.220;19.878;2023-05-10T02:25:31;16.12;;;8.77;;
75941;SDS011;64622;46.220;19.878;2023-05-10T02:27:59;16.02;;;8.95;;
75941;SDS011;64622;46.220;19.878;2023-05-10T02:30:28;17.83;;;9.17;;
75941;SDS011;64622;46.220;19.878;2023-05-10T02:32:57;17.05;;;9.73;;
75941;SDS011;64622;46.220;19.878;2023-05-10T02:35:25;14.95;;;8.00;;
75941;SDS011;64622;46.220;19.878;2023-05-10T02:37:53;15.95;;;9.20;;
75941;SDS011;64622;46.220;19.878;2023-05-10T02:40:21;18.98;;;9.77;;
75941;SDS011;64622;46.220;19.878;2023-05-10T02:42:50;18.10;;;9.13;;
75941;SDS011;64622;46.220;19.878;2023-05-10T02:45:21;18.40;;;8.48;;
75941;SDS011;64622;46.220;19.878;2023-05-10T02:47:52;17.58;;;10.00;;
75941;SDS011;64622;46.220;19.878;2023-05-10T02:50:20;16.35;;;8.68;;
75941;SDS011;64622;46.220;19.878;2023-05-10T02:52:51;16.75;;;8.93;;
75941;SDS011;64622;46.220;19.878;2023-05-10T02:55:23;16.97;;;9.03;;
75941;SDS011;64622;46.220;19.878;2023-05-10T02:57:55;19.20;;;9.27;;
75941;SDS011;64622;46.220;19.878;2023-05-10T03:00:26;14.15;;;7.28;;
75941;SDS011;64622;46.220;19.878;2023-05-10T03:02:53;17.77;;;8.50;;
75941;SDS011;64622;46.220;19.878;2023-05-10T03:05:20;18.37;;;9.13;;
75941;SDS011;64622;46.220;19.878;2023-05-10T03:07:47;17.50;;;9.47;;
75941;SDS011;64622;46.220;19.878;2023-05-10T03:10:14;16.10;;;8.55;;
75941;SDS011;64622;46.220;19.878;2023-05-10T03:18:15;17.35;;;9.65;;
75941;SDS011;64622;46.220;19.878;2023-05-10T03:20:57;18.80;;;9.67;;
75941;SDS011;64622;46.220;19.878;2023-05-10T03:26:06;15.65;;;8.05;;
75941;SDS011;64622;46.220;19.878;2023-05-10T03:28:34;16.30;;;8.10;;
75941;SDS011;64622;46.220;19.878;2023-05-10T03:31:02;15.73;;;7.97;;
75941;SDS011;64622;46.220;19.878;2023-05-10T03:33:32;15.03;;;8.17;;
75941;SDS011;64622;46.220;19.878;2023-05-10T03:35:59;18.62;;;9.68;;
75941;SDS011;64622;46.220;19.878;2023-05-10T03:38:26;18.48;;;9.48;;
75941;SDS011;64622;46.220;19.878;2023-05-10T03:40:52;20.50;;;10.60;;
75941;SDS011;64622;46.220;19.878;2023-05-10T03:43:19;21.87;;;12.37;;
75941;SDS011;64622;46.220;19.878;2023-05-10T03:45:45;33.07;;;17.07;;
75941;SDS011;64622;46.220;19.878;2023-05-10T03:48:12;32.72;;;16.58;;
75941;SDS011;64622;46.220;19.878;2023-05-10T03:50:41;24.33;;;14.68;;
75941;SDS011;64622;46.220;19.878;2023-05-10T03:53:07;23.62;;;12.30;;
75941;SDS011;64622;46.220;19.878;2023-05-10T03:55:34;20.88;;;11.27;;
75941;SDS011;64622;46.220;19.878;2023-05-10T03:58:02;18.73;;;10.57;;
75941;SDS011;64622;46.220;19.878;2023-05-10T04:00:29;23.90;;;11.98;;
75941;SDS011;64622;46.220;19.878;2023-05-10T04:02:57;17.08;;;9.35;;
75941;SDS011;64622;46.220;19.878;2023-05-10T04:05:23;16.87;;;8.82;;
75941;SDS011;64622;46.220;19.878;2023-05-10T04:07:51;19.37;;;9.57;;
75941;SDS011;64622;46.220;19.878;2023-05-10T04:10:18;16.87;;;8.97;;
75941;SDS011;64622;46.220;19.878;2023-05-10T04:12:45;17.90;;;9.05;;
75941;SDS011;64622;46.220;19.878;2023-05-10T04:15:11;18.42;;;9.73;;
75941;SDS011;64622;46.220;19.878;2023-05-10T04:17:38;16.40;;;8.80;;
75941;SDS011;64622;46.220;19.878;2023-05-10T04:20:05;15.23;;;8.02;;
75941;SDS011;64622;46.220;19.878;2023-05-10T04:22:32;15.13;;;6.97;;
75941;SDS011;64622;46.220;19.878;2023-05-10T04:24:59;16.20;;;8.68;;
75941;SDS011;64622;46.220;19.878;2023-05-10T04:27:26;17.60;;;8.38;;
75941;SDS011;64622;46.220;19.878;2023-05-10T04:29:53;15.27;;;6.68;;
75941;SDS011;64622;46.220;19.878;2023-05-10T04:32:19;13.90;;;6.75;;
75941;SDS011;64622;46.220;19.878;2023-05-10T04:34:46;12.13;;;5.97;;
75941;SDS011;64622;46.220;19.878;2023-05-10T04:37:13;9.90;;;4.30;;
75941;SDS011;64622;46.220;19.878;2023-05-10T04:39:39;11.45;;;5.25;;
75941;SDS011;64622;46.220;19.878;2023-05-10T04:42:06;14.05;;;7.50;;
75941;SDS011;64622;46.220;19.878;2023-05-10T04:44:33;10.73;;;4.95;;
75941;SDS011;64622;46.220;19.878;2023-05-10T04:46:59;10.20;;;4.43;;
75941;SDS011;64622;46.220;19.878;2023-05-10T04:49:28;13.55;;;6.43;;
75941;SDS011;64622;46.220;19.878;2023-05-10T04:51:55;13.15;;;6.90;;
75941;SDS011;64622;46.220;19.878;2023-05-10T04:54:22;10.38;;;4.28;;
75941;SDS011;64622;46.220;19.878;2023-05-10T04:56:49;11.23;;;4.68;;
75941;SDS011;64622;46.220;19.878;2023-05-10T04:59:16;9.80;;;4.57;;
75941;SDS011;64622;46.220;19.878;2023-05-10T05:01:42;13.05;;;6.18;;
75941;SDS011;64622;46.220;19.878;2023-05-10T05:04:09;8.32;;;3.70;;
75941;SDS011;64622;46.220;19.878;2023-05-10T05:06:36;11.48;;;5.60;;
75941;SDS011;64622;46.220;19.878;2023-05-10T05:09:02;10.48;;;4.05;;
75941;SDS011;64622;46.220;19.878;2023-05-10T05:11:29;10.10;;;4.87;;
75941;SDS011;64622;46.220;19.878;2023-05-10T05:13:56;10.10;;;4.57;;
75941;SDS011;64622;46.220;19.878;2023-05-10T05:16:25;11.45;;;4.80;;
75941;SDS011;64622;46.220;19.878;2023-05-10T05:18:51;8.82;;;4.28;;
75941;SDS011;64622;46.220;19.878;2023-05-10T05:21:18;9.85;;;4.87;;
75941;SDS011;64622;46.220;19.878;2023-05-10T05:23:46;8.07;;;3.33;;
75941;SDS011;64622;46.220;19.878;2023-05-10T05:26:12;9.52;;;4.00;;
75941;SDS011;64622;46.220;19.878;2023-05-10T05:28:38;10.95;;;4.43;;
75941;SDS011;64622;46.220;19.878;2023-05-10T05:31:06;9.75;;;3.97;;
75941;SDS011;64622;46.220;19.878;2023-05-10T05:33:36;9.77;;;4.93;;
75941;SDS011;64622;46.220;19.878;2023-05-10T05:36:04;8.77;;;3.93;;
75941;SDS011;64622;46.220;19.878;2023-05-10T05:38:31;8.93;;;3.67;;
75941;SDS011;64622;46.220;19.878;2023-05-10T05:40:58;9.60;;;4.75;;
75941;SDS011;64622;46.220;19.878;2023-05-10T05:43:24;10.55;;;4.05;;
75941;SDS011;64622;46.220;19.878;2023-05-10T05:45:51;9.68;;;3.47;;
75941;SDS011;64622;46.220;19.878;2023-05-10T05:48:19;9.80;;;4.07;;
75941;SDS011;64622;46.220;19.878;2023-05-10T05:50:46;9.52;;;3.58;;
75941;SDS011;64622;46.220;19.878;2023-05-10T05:53:13;8.18;;;2.80;;
75941;SDS011;64622;46.220;19.878;2023-05-10T05:55:40;9.27;;;3.17;;
75941;SDS011;64622;46.220;19.878;2023-05-10T05:58:16;8.00;;;2.45;;
75941;SDS011;64622;46.220;19.878;2023-05-10T06:00:43;7.50;;;2.90;;
75941;SDS011;64622;46.220;19.878;2023-05-10T06:03:10;8.35;;;2.20;;
75941;SDS011;64622;46.220;19.878;2023-05-10T06:05:37;6.43;;;2.28;;
75941;SDS011;64622;46.220;19.878;2023-05-10T06:08:03;8.80;;;3.00;;
75941;SDS011;64622;46.220;19.878;2023-05-10T06:10:30;7.60;;;2.70;;
75941;SDS011;64622;46.220;19.878;2023-05-10T06:12:57;7.57;;;2.73;;
75941;SDS011;64622;46.220;19.878;2023-05-10T06:15:24;9.20;;;3.17;;
75941;SDS011;64622;46.220;19.878;2023-05-10T06:17:51;10.25;;;3.03;;
75941;SDS011;64622;46.220;19.878;2023-05-10T06:20:17;7.45;;;2.35;;
75941;SDS011;64622;46.220;19.878;2023-05-10T06:22:44;7.43;;;2.95;;
75941;SDS011;64622;46.220;19.878;2023-05-10T06:25:11;8.67;;;3.30;;
75941;SDS011;64622;46.220;19.878;2023-05-10T06:27:37;7.97;;;2.97;;
75941;SDS011;64622;46.220;19.878;2023-05-10T06:30:04;7.57;;;2.22;;
75941;SDS011;64622;46.220;19.878;2023-05-10T06:32:32;6.87;;;2.62;;
75941;SDS011;64622;46.220;19.878;2023-05-10T06:34:58;7.80;;;3.20;;
75941;SDS011;64622;46.220;19.878;2023-05-10T06:37:25;6.97;;;2.63;;
75941;SDS011;64622;46.220;19.878;2023-05-10T06:39:52;8.25;;;3.08;;
75941;SDS011;64622;46.220;19.878;2023-05-10T06:42:18;7.07;;;2.67;;
75941;SDS011;64622;46.220;19.878;2023-05-10T06:44:45;6.20;;;2.05;;
75941;SDS011;64622;46.220;19.878;2023-05-10T06:47:12;9.27;;;2.75;;
75941;SDS011;64622;46.220;19.878;2023-05-10T06:49:39;7.10;;;2.47;;
75941;SDS011;64622;46.220;19.878;2023-05-10T06:52:06;8.00;;;2.70;;
75941;SDS011;64622;46.220;19.878;2023-05-10T06:54:53;8.38;;;2.90;;
75941;SDS011;64622;46.220;19.878;2023-05-10T06:57:19;6.60;;;2.47;;
75941;SDS011;64622;46.220;19.878;2023-05-10T06:59:46;7.50;;;2.15;;
75941;SDS011;64622;46.220;19.878;2023-05-10T07:02:13;10.10;;;3.00;;
75941;SDS011;64622;46.220;19.878;2023-05-10T07:04:40;7.40;;;2.87;;
75941;SDS011;64622;46.220;19.878;2023-05-10T07:07:07;8.50;;;2.53;;
75941;SDS011;64622;46.220;19.878;2023-05-10T07:09:34;8.02;;;2.35;;
75941;SDS011;64622;46.220;19.878;2023-05-10T07:12:01;9.05;;;2.72;;
75941;SDS011;64622;46.220;19.878;2023-05-10T07:14:28;5.57;;;1.73;;
75941;SDS011;64622;46.220;19.878;2023-05-10T07:16:54;7.75;;;2.45;;
75941;SDS011;64622;46.220;19.878;2023-05-10T07:19:21;7.22;;;2.40;;
75941;SDS011;64622;46.220;19.878;2023-05-10T07:21:48;7.62;;;2.70;;
75941;SDS011;64622;46.220;19.878;2023-05-10T07:24:16;10.15;;;2.58;;
75941;SDS011;64622;46.220;19.878;2023-05-10T07:26:43;7.80;;;2.77;;
75941;SDS011;64622;46.220;19.878;2023-05-10T07:29:10;6.78;;;2.60;;
75941;SDS011;64622;46.220;19.878;2023-05-10T07:31:36;5.72;;;1.90;;
75941;SDS011;64622;46.220;19.878;2023-05-10T07:34:06;6.97;;;2.50;;
75941;SDS011;64622;46.220;19.878;2023-05-10T07:36:33;7.57;;;2.70;;
75941;SDS011;64622;46.220;19.878;2023-05-10T07:39:00;8.20;;;2.07;;
75941;SDS011;64622;46.220;19.878;2023-05-10T07:41:28;6.57;;;2.33;;
75941;SDS011;64622;46.220;19.878;2023-05-10T07:43:55;5.57;;;1.80;;
75941;SDS011;64622;46.220;19.878;2023-05-10T07:46:21;6.95;;;1.70;;
75941;SDS011;64622;46.220;19.878;2023-05-10T07:48:47;6.90;;;2.55;;
75941;SDS011;64622;46.220;19.878;2023-05-10T07:51:14;7.20;;;2.20;;
75941;SDS011;64622;46.220;19.878;2023-05-10T07:53:41;6.93;;;1.87;;
75941;SDS011;64622;46.220;19.878;2023-05-10T07:58:53;6.37;;;1.73;;
75941;SDS011;64622;46.220;19.878;2023-05-10T08:01:20;7.53;;;2.90;;
75941;SDS011;64622;46.220;19.878;2023-05-10T08:03:48;5.47;;;1.73;;
75941;SDS011;64622;46.220;19.878;2023-05-10T08:06:16;6.75;;;2.05;;
75941;SDS011;64622;46.220;19.878;2023-05-10T08:08:45;10.85;;;2.62;;
75941;SDS011;64622;46.220;19.878;2023-05-10T08:11:16;8.95;;;3.12;;
75941;SDS011;64622;46.220;19.878;2023-05-10T08:13:44;7.82;;;2.37;;
75941;SDS011;64622;46.220;19.878;2023-05-10T08:16:11;5.53;;;1.80;;
75941;SDS011;64622;46.220;19.878;2023-05-10T08:18:38;6.35;;;2.00;;
75941;SDS011;64622;46.220;19.878;2023-05-10T08:21:05;8.93;;;2.95;;
75941;SDS011;64622;46.220;19.878;2023-05-10T08:23:33;6.93;;;2.17;;
75941;SDS011;64622;46.220;19.878;2023-05-10T08:26:00;13.05;;;3.10;;
75941;SDS011;64622;46.220;19.878;2023-05-10T08:28:26;8.83;;;2.70;;
75941;SDS011;64622;46.220;19.878;2023-05-10T08:30:53;6.65;;;1.80;;
75941;SDS011;64622;46.220;19.878;2023-05-10T08:33:20;5.87;;;2.05;;
75941;SDS011;64622;46.220;19.878;2023-05-10T08:35:47;8.48;;;2.92;;
75941;SDS011;64622;46.220;19.878;2023-05-10T08:38:13;12.60;;;3.30;;
75941;SDS011;64622;46.220;19.878;2023-05-10T08:40:41;6.87;;;2.43;;
75941;SDS011;64622;46.220;19.878;2023-05-10T08:43:09;7.07;;;2.92;;
75941;SDS011;64622;46.220;19.878;2023-05-10T08:45:41;12.10;;;3.78;;
75941;SDS011;64622;46.220;19.878;2023-05-10T08:48:09;6.65;;;2.47;;
75941;SDS011;64622;46.220;19.878;2023-05-10T08:50:38;7.53;;;2.40;;
75941;SDS011;64622;46.220;19.878;2023-05-10T08:53:06;7.37;;;3.10;;
75941;SDS011;64622;46.220;19.878;2023-05-10T08:55:36;6.47;;;2.17;;
75941;SDS011;64622;46.220;19.878;2023-05-10T08:58:04;7.78;;;2.67;;
75941;SDS011;64622;46.220;19.878;2023-05-10T09:00:32;6.43;;;2.28;;
75941;SDS011;64622;46.220;19.878;2023-05-10T09:02:59;7.07;;;2.05;;
75941;SDS011;64622;46.220;19.878;2023-05-10T09:05:26;5.83;;;2.13;;
75941;SDS011;64622;46.220;19.878;2023-05-10T09:07:54;6.97;;;2.90;;
75941;SDS011;64622;46.220;19.878;2023-05-10T09:10:21;5.80;;;2.12;;
75941;SDS011;64622;46.220;19.878;2023-05-10T09:12:51;6.18;;;2.05;;
75941;SDS011;64622;46.220;19.878;2023-05-10T09:15:20;7.25;;;2.25;;
75941;SDS011;64622;46.220;19.878;2023-05-10T09:17:47;6.33;;;1.80;;
75941;SDS011;64622;46.220;19.878;2023-05-10T09:20:15;7.22;;;2.20;;
75941;SDS011;64622;46.220;19.878;2023-05-10T09:22:43;9.75;;;2.28;;
75941;SDS011;64622;46.220;19.878;2023-05-10T09:25:12;6.53;;;1.90;;
75941;SDS011;64622;46.220;19.878;2023-05-10T09:27:40;6.93;;;1.83;;
75941;SDS011;64622;46.220;19.878;2023-05-10T09:30:15;6.60;;;2.30;;
75941;SDS011;64622;46.220;19.878;2023-05-10T09:32:44;8.60;;;1.83;;
75941;SDS011;64622;46.220;19.878;2023-05-10T09:35:14;5.95;;;1.83;;
75941;SDS011;64622;46.220;19.878;2023-05-10T09:37:45;7.18;;;2.05;;
75941;SDS011;64622;46.220;19.878;2023-05-10T09:40:20;6.78;;;2.50;;
75941;SDS011;64622;46.220;19.878;2023-05-10T09:45:20;6.53;;;1.62;;
75941;SDS011;64622;46.220;19.878;2023-05-10T09:47:47;6.12;;;1.90;;
75941;SDS011;64622;46.220;19.878;2023-05-10T09:50:14;6.87;;;2.47;;
75941;SDS011;64622;46.220;19.878;2023-05-10T09:55:20;7.23;;;2.03;;
75941;SDS011;64622;46.220;19.878;2023-05-10T09:57:49;7.00;;;1.77;;
75941;SDS011;64622;46.220;19.878;2023-05-10T10:00:24;6.50;;;1.90;;
75941;SDS011;64622;46.220;19.878;2023-05-10T10:02:54;8.18;;;2.03;;
75941;SDS011;64622;46.220;19.878;2023-05-10T10:05:34;6.68;;;2.10;;
75941;SDS011;64622;46.220;19.878;2023-05-10T10:08:02;8.43;;;2.00;;
75941;SDS011;64622;46.220;19.878;2023-05-10T10:10:30;5.78;;;2.00;;
75941;SDS011;64622;46.220;19.878;2023-05-10T10:12:58;7.07;;;1.90;;
75941;SDS011;64622;46.220;19.878;2023-05-10T10:15:25;4.50;;;1.10;;
75941;SDS011;64622;46.220;19.878;2023-05-10T10:17:52;5.10;;;1.55;;
75941;SDS011;64622;46.220;19.878;2023-05-10T10:20:20;6.87;;;2.10;;
75941;SDS011;64622;46.220;19.878;2023-05-10T10:22:48;7.47;;;2.80;;
75941;SDS011;64622;46.220;19.878;2023-05-10T10:25:16;6.95;;;2.30;;
75941;SDS011;64622;46.220;19.878;2023-05-10T10:33:06;6.93;;;2.27;;
75941;SDS011;64622;46.220;19.878;2023-05-10T10:35:37;5.70;;;1.50;;
75941;SDS011;64622;46.220;19.878;2023-05-10T10:38:04;10.13;;;2.25;;
75941;SDS011;64622;46.220;19.878;2023-05-10T10:40:34;5.20;;;1.80;;
75941;SDS011;64622;46.220;19.878;2023-05-10T10:43:20;9.35;;;3.62;;
75941;SDS011;64622;46.220;19.878;2023-05-10T10:49:08;6.57;;;1.85;;
75941;SDS011;64622;46.220;19.878;2023-05-10T10:51:36;8.55;;;1.95;;
75941;SDS011;64622;46.220;19.878;2023-05-10T10:54:10;4.95;;;1.30;;
75941;SDS011;64622;46.220;19.878;2023-05-10T10:56:37;5.45;;;1.40;;
75941;SDS011;64622;46.220;19.878;2023-05-10T10:59:03;6.63;;;1.40;;
75941;SDS011;64622;46.220;19.878;2023-05-10T11:01:33;7.65;;;1.87;;
75941;SDS011;64622;46.220;19.878;2023-05-10T11:04:16;4.87;;;1.37;;
75941;SDS011;64622;46.220;19.878;2023-05-10T11:06:44;4.82;;;1.17;;
75941;SDS011;64622;46.220;19.878;2023-05-10T11:09:11;5.30;;;1.50;;
75941;SDS011;64622;46.220;19.878;2023-05-10T11:11:48;5.40;;;1.50;;
75941;SDS011;64622;46.220;19.878;2023-05-10T11:14:19;8.45;;;1.50;;
75941;SDS011;64622;46.220;19.878;2023-05-10T11:16:48;5.90;;;1.62;;
75941;SDS011;64622;46.220;19.878;2023-05-10T11:19:15;10.57;;;1.73;;
75941;SDS011;64622;46.220;19.878;2023-05-10T11:24:17;8.20;;;1.37;;
75941;SDS011;64622;46.220;19.878;2023-05-10T11:26:46;3.97;;;0.95;;
75941;SDS011;64622;46.220;19.878;2023-05-10T11:29:16;5.90;;;1.55;;
75941;SDS011;64622;46.220;19.878;2023-05-10T11:31:46;6.25;;;1.35;;
75941;SDS011;64622;46.220;19.878;2023-05-10T11:34:23;5.55;;;1.25;;
75941;SDS011;64622;46.220;19.878;2023-05-10T11:36:51;5.77;;;1.03;;
75941;SDS011;64622;46.220;19.878;2023-05-10T11:39:20;5.57;;;1.20;;
75941;SDS011;64622;46.220;19.878;2023-05-10T11:41:48;3.72;;;0.88;;
75941;SDS011;64622;46.220;19.878;2023-05-10T11:44:15;6.78;;;1.70;;
75941;SDS011;64622;46.220;19.878;2023-05-10T11:46:42;5.65;;;1.60;;
75941;SDS011;64622;46.220;19.878;2023-05-10T11:49:09;5.73;;;1.97;;
75941;SDS011;64622;46.220;19.878;2023-05-10T11:51:36;5.12;;;1.23;;
75941;SDS011;64622;46.220;19.878;2023-05-10T11:54:06;6.28;;;1.83;;
75941;SDS011;64622;46.220;19.878;2023-05-10T11:56:36;6.57;;;1.10;;
75941;SDS011;64622;46.220;19.878;2023-05-10T11:59:06;6.20;;;1.25;;
75941;SDS011;64622;46.220;19.878;2023-05-10T12:01:34;3.97;;;0.97;;
75941;SDS011;64622;46.220;19.878;2023-05-10T12:04:01;5.35;;;1.17;;
75941;SDS011;64622;46.220;19.878;2023-05-10T12:06:29;5.15;;;1.40;;
75941;SDS011;64622;46.220;19.878;2023-05-10T12:08:58;7.78;;;1.70;;
75941;SDS011;64622;46.220;19.878;2023-05-10T12:11:25;6.10;;;1.58;;
75941;SDS011;64622;46.220;19.878;2023-05-10T12:13:53;5.07;;;1.60;;
75941;SDS011;64622;46.220;19.878;2023-05-10T12:16:21;4.75;;;1.20;;
75941;SDS011;64622;46.220;19.878;2023-05-10T12:18:50;5.07;;;1.20;;
75941;SDS011;64622;46.220;19.878;2023-05-10T12:21:18;5.20;;;1.40;;
75941;SDS011;64622;46.220;19.878;2023-05-10T12:23:46;5.07;;;1.35;;
75941;SDS011;64622;46.220;19.878;2023-05-10T12:26:15;5.20;;;1.20;;
75941;SDS011;64622;46.220;19.878;2023-05-10T12:28:41;5.60;;;1.62;;
75941;SDS011;64622;46.220;19.878;2023-05-10T12:31:08;7.05;;;1.60;;
75941;SDS011;64622;46.220;19.878;2023-05-10T12:33:44;4.55;;;1.23;;
75941;SDS011;64622;46.220;19.878;2023-05-10T12:36:13;5.05;;;1.25;;
75941;SDS011;64622;46.220;19.878;2023-05-10T12:38:42;4.27;;;0.87;;
75941;SDS011;64622;46.220;19.878;2023-05-10T12:41:10;4.60;;;0.90;;
75941;SDS011;64622;46.220;19.878;2023-05-10T12:43:41;4.35;;;1.12;;
75941;SDS011;64622;46.220;19.878;2023-05-10T12:46:12;6.12;;;1.40;;
75941;SDS011;64622;46.220;19.878;2023-05-10T12:48:41;7.95;;;1.10;;
75941;SDS011;64622;46.220;19.878;2023-05-10T12:51:09;5.07;;;1.03;;
75941;SDS011;64622;46.220;19.878;2023-05-10T12:53:38;4.05;;;0.90;;
75941;SDS011;64622;46.220;19.878;2023-05-10T12:56:05;5.25;;;1.50;;
75941;SDS011;64622;46.220;19.878;2023-05-10T12:58:32;5.68;;;1.27;;
75941;SDS011;64622;46.220;19.878;2023-05-10T13:00:59;4.82;;;1.00;;
75941;SDS011;64622;46.220;19.878;2023-05-10T13:03:26;4.33;;;0.93;;
75941;SDS011;64622;46.220;19.878;2023-05-10T13:05:52;7.62;;;1.55;;
75941;SDS011;64622;46.220;19.878;2023-05-10T13:08:19;5.90;;;1.10;;
75941;SDS011;64622;46.220;19.878;2023-05-10T13:10:45;5.10;;;1.37;;
75941;SDS011;64622;46.220;19.878;2023-05-10T13:13:12;5.85;;;1.10;;
75941;SDS011;64622;46.220;19.878;2023-05-10T13:15:38;4.70;;;0.90;;
75941;SDS011;64622;46.220;19.878;2023-05-10T13:18:05;6.40;;;1.30;;
75941;SDS011;64622;46.220;19.878;2023-05-10T13:20:32;5.53;;;0.90;;
75941;SDS011;64622;46.220;19.878;2023-05-10T13:22:58;5.12;;;0.95;;
75941;SDS011;64622;46.220;19.878;2023-05-10T13:25:25;4.62;;;0.90;;
75941;SDS011;64622;46.220;19.878;2023-05-10T13:27:52;4.83;;;0.80;;
75941;SDS011;64622;46.220;19.878;2023-05-10T13:30:18;3.83;;;0.88;;
75941;SDS011;64622;46.220;19.878;2023-05-10T13:32:45;4.30;;;0.93;;
75941;SDS011;64622;46.220;19.878;2023-05-10T13:35:12;5.07;;;1.12;;
75941;SDS011;64622;46.220;19.878;2023-05-10T13:37:38;5.82;;;1.35;;
75941;SDS011;64622;46.220;19.878;2023-05-10T13:40:05;5.03;;;1.23;;
75941;SDS011;64622;46.220;19.878;2023-05-10T13:42:33;5.55;;;1.10;;
75941;SDS011;64622;46.220;19.878;2023-05-10T13:45:00;4.37;;;0.95;;
75941;SDS011;64622;46.220;19.878;2023-05-10T13:47:27;5.62;;;1.10;;
75941;SDS011;64622;46.220;19.878;2023-05-10T13:49:54;6.03;;;1.27;;
75941;SDS011;64622;46.220;19.878;2023-05-10T13:52:21;4.87;;;1.20;;
75941;SDS011;64622;46.220;19.878;2023-05-10T13:54:47;6.78;;;1.40;;
75941;SDS011;64622;46.220;19.878;2023-05-10T13:57:14;3.80;;;1.00;;
75941;SDS011;64622;46.220;19.878;2023-05-10T13:59:42;7.70;;;1.15;;
75941;SDS011;64622;46.220;19.878;2023-05-10T14:02:09;5.95;;;1.20;;
75941;SDS011;64622;46.220;19.878;2023-05-10T14:04:38;6.83;;;1.67;;
75941;SDS011;64622;46.220;19.878;2023-05-10T14:07:05;3.95;;;0.85;;
75941;SDS011;64622;46.220;19.878;2023-05-10T14:09:31;5.12;;;1.08;;
75941;SDS011;64622;46.220;19.878;2023-05-10T14:11:58;7.60;;;1.17;;
75941;SDS011;64622;46.220;19.878;2023-05-10T14:14:25;3.97;;;0.90;;
75941;SDS011;64622;46.220;19.878;2023-05-10T14:16:52;3.27;;;0.70;;
75941;SDS011;64622;46.220;19.878;2023-05-10T14:19:19;5.85;;;0.88;;
75941;SDS011;64622;46.220;19.878;2023-05-10T14:21:45;4.03;;;0.93;;
75941;SDS011;64622;46.220;19.878;2023-05-10T14:24:12;4.87;;;1.15;;
75941;SDS011;64622;46.220;19.878;2023-05-10T14:26:39;5.68;;;1.40;;
75941;SDS011;64622;46.220;19.878;2023-05-10T14:29:05;9.37;;;1.50;;
75941;SDS011;64622;46.220;19.878;2023-05-10T14:31:32;6.65;;;1.40;;
75941;SDS011;64622;46.220;19.878;2023-05-10T14:33:59;6.05;;;1.40;;
75941;SDS011;64622;46.220;19.878;2023-05-10T14:36:25;5.28;;;0.98;;
75941;SDS011;64622;46.220;19.878;2023-05-10T14:38:52;7.70;;;1.67;;
75941;SDS011;64622;46.220;19.878;2023-05-10T14:41:18;4.23;;;1.00;;
75941;SDS011;64622;46.220;19.878;2023-05-10T14:43:45;7.10;;;1.05;;
75941;SDS011;64622;46.220;19.878;2023-05-10T14:46:11;5.75;;;1.20;;
75941;SDS011;64622;46.220;19.878;2023-05-10T14:48:38;5.05;;;1.15;;
75941;SDS011;64622;46.220;19.878;2023-05-10T14:51:05;4.65;;;0.82;;
75941;SDS011;64622;46.220;19.878;2023-05-10T14:53:35;4.77;;;1.13;;
75941;SDS011;64622;46.220;19.878;2023-05-10T14:56:02;5.40;;;1.40;;
75941;SDS011;64622;46.220;19.878;2023-05-10T14:58:29;5.35;;;1.05;;
75941;SDS011;64622;46.220;19.878;2023-05-10T15:00:57;6.03;;;1.12;;
75941;SDS011;64622;46.220;19.878;2023-05-10T15:03:23;6.37;;;1.00;;
75941;SDS011;64622;46.220;19.878;2023-05-10T15:05:51;5.03;;;1.00;;
75941;SDS011;64622;46.220;19.878;2023-05-10T15:08:17;4.75;;;1.10;;
75941;SDS011;64622;46.220;19.878;2023-05-10T15:10:44;5.82;;;1.65;;
75941;SDS011;64622;46.220;19.878;2023-05-10T15:13:11;6.28;;;1.25;;